Alton, NY

1:04 PM EDT on April 27, 2015 (GMT -0400)
Lyons | | Change Station
CLOSE
Current Station
Personal Weather Station
Location: Lyons, NY
Elevation: 503 ft
Nearby Weather Stations

Elev 503 ft 43.14 °N, 77.00 °W | Updated 1 second ago

Overcast
Overcast
48.4 °F
Feels Like 47 °F
N
3.5
Wind Variable Wind from NE
Gusts 3.5 mph

Today
High -- | Low -- °F
--% Chance of Precip.
Yesterday
High -- | Low -- °F
Precip. -- in
6:07 AM 8:04 PM
Waxing Gibbous, 66% visible
Pressure 29.83 in
Visibility 10.0 miles
Clouds Mostly Cloudy 2300 ft
Windchill 47 °F
Dew Point 39 °F
Humidity 71%
Rainfall 0.00 in
Snow Depth Not available.
UV 5 out of 12
Pollen 10.20 out of 12
Air Quality Not available.
Flu Activity Widespread
METAR KFZY 271654Z AUTO 32011G18KT 10SM BKN023 08/02 A2982 RMK AO2 SLP101 T00830017

More Conditions Fewer Conditions

Pressure 29.83 in
Visibility 10.0 miles
Clouds Mostly Cloudy 2300 ft
Windchill 47 °F
Dew Point 39 °F
Humidity 71%
Rainfall 0.00 in
Snow Depth Not available.
UV 5 out of 12
Pollen 10.20 out of 12
Air Quality Not available.
Flu Activity Widespread
METAR KFZY 271654Z AUTO 32011G18KT 10SM BKN023 08/02 A2982 RMK AO2 SLP101 T00830017

More Conditions Fewer Conditions

10-Day Weather Forecast

Almanac

Astronomy

Apr. 27, 2015 Rise Set
Actual Time
Civil Twilight
Nautical Twilight
Astronomical Twilight
Moon
Length of Visible Light
Length of Day
Tomorrow will be .
, % of the Moon is Illuminated

Today's Extremes

State Highs State Lows

Community

WunderPhotos

Upload Photos

1,817,341 photos uploaded!

WunderBlogs® & News

Nearby

Air Quality

  Air Quality AQ Index Pollutant
Not available.

Snow Depth

Station Depth Elevation

Earthquake Activity

City Distance Mag. Time & Date
Minimum magnitude displayed is 2.5.

Coastal Water Temperatures

Place Temperature

Stations

Nearby Weather Stations

Station Location Temp. Windchill Dew Point Humidity Wind Precip. Elev Updated Type